Time,TemperatureF,DewpointF,PressureIn,WindDirection,WindDirectionDegrees,WindSpeedMPH,WindSpeedGustMPH,Humidity,HourlyPrecipIn,Conditions,Clouds,dailyrainin,SolarRadiationWatts/m^2,SoftwareType,DateUTC
2013-12-08 00:01:00,12.7,5.7,30.52,South,182,9.0,19.0,73,0.00,,,0.00,0,WeatherCatV1.23B16,2013-12-08 05:01:00,
2013-12-08 00:06:00,12.7,5.7,30.52,SSW,192,13.0,14.0,73,0.00,,,0.00,0,WeatherCatV1.23B16,2013-12-08 05:06:00,
2013-12-08 00:11:00,12.6,5.6,30.52,SSW,193,10.0,20.0,73,0.00,,,0.00,0,WeatherCatV1.23B16,2013-12-08 05:11:00,
2013-12-08 00:16:00,12.5,5.5,30.53,SSW,198,9.0,18.0,73,0.00,,,0.00,0,WeatherCatV1.23B16,2013-12-08 05:16:00,
2013-12-08 00:21:00,12.3,5.3,30.53,South,182,9.0,14.0,73,0.00,,,0.00,0,WeatherCatV1.23B16,2013-12-08 05:21:00,
2013-12-08 00:26:00,12.2,5.2,30.53,NE,51,0.0,13.0,73,0.00,,,0.00,0,WeatherCatV1.23B16,2013-12-08 05:26:00,
2013-12-08 00:31:00,12.1,5.1,30.53,SE,144,0.0,10.0,73,0.00,,,0.00,0,WeatherCatV1.23B16,2013-12-08 05:31:00,
2013-12-08 00:36:00,11.9,4.9,30.52,South,190,7.0,13.0,73,0.00,,,0.00,0,WeatherCatV1.23B16,2013-12-08 05:36:00,
2013-12-08 00:41:00,11.9,5.2,30.52,South,178,8.0,12.0,74,0.00,,,0.00,0,WeatherCatV1.23B16,2013-12-08 05:41:00,
2013-12-08 00:46:00,11.9,5.5,30.52,South,182,0.0,12.0,75,0.00,,,0.00,0,WeatherCatV1.23B16,2013-12-08 05:46:00,
2013-12-08 00:51:00,11.8,5.7,30.52,South,178,7.0,7.0,76,0.00,,,0.00,0,WeatherCatV1.23B16,2013-12-08 05:51:00,
2013-12-08 00:56:00,11.7,5.9,30.52,SW,234,1.0,8.0,77,0.00,,,0.00,0,WeatherCatV1.23B16,2013-12-08 05:56:00,
2013-12-08 01:01:00,11.7,5.9,30.52,SSE,154,1.0,7.0,77,0.00,,,0.00,0,WeatherCatV1.23B16,2013-12-08 06:01:00,
2013-12-08 01:06:00,11.7,5.9,30.51,SSW,196,1.0,9.0,77,0.00,,,0.00,0,WeatherCatV1.23B16,2013-12-08 06:06:00,
2013-12-08 01:11:00,11.8,6.0,30.51,SSW,196,3.0,10.0,77,0.00,,,0.00,0,WeatherCatV1.23B16,2013-12-08 06:11:00,
2013-12-08 01:16:00,11.9,6.4,30.51,SSW,192,5.0,10.0,78,0.00,,,0.00,0,WeatherCatV1.23B16,2013-12-08 06:16:00,
2013-12-08 01:26:00,11.9,6.7,30.51,SW,221,4.0,4.0,79,0.00,,,0.00,0,WeatherCatV1.23B16,2013-12-08 06:26:00,
2013-12-08 01:31:00,12.0,7.0,30.50,South,174,0.0,8.0,80,0.00,,,0.00,0,WeatherCatV1.23B16,2013-12-08 06:31:00,
2013-12-08 01:36:00,11.9,6.9,30.51,SSE,150,0.0,7.0,80,0.00,,,0.00,0,WeatherCatV1.23B16,2013-12-08 06:36:00,
2013-12-08 01:46:00,11.8,7.1,30.50,South,171,4.0,4.0,81,0.00,,,0.00,0,WeatherCatV1.23B16,2013-12-08 06:46:00,
2013-12-08 01:51:00,11.7,7.0,30.51,SW,220,0.0,1.0,81,0.00,,,0.00,0,WeatherCatV1.23B16,2013-12-08 06:51:00,
2013-12-08 01:56:00,11.5,6.8,30.51,NNW,338,0.0,2.0,81,0.00,,,0.00,0,WeatherCatV1.23B16,2013-12-08 06:56:00,
2013-12-08 02:01:00,11.2,6.8,30.51,NNW,338,0.0,0.0,82,0.00,,,0.00,0,WeatherCatV1.23B16,2013-12-08 07:01:00,
2013-12-08 02:06:00,11.0,6.3,30.51,NNW,344,0.0,1.0,81,0.00,,,0.00,0,WeatherCatV1.23B16,2013-12-08 07:06:00,
2013-12-08 02:11:00,10.8,6.4,30.51,NNW,333,0.0,0.0,82,0.00,,,0.00,0,WeatherCatV1.23B16,2013-12-08 07:11:00,
2013-12-08 02:16:00,10.6,6.5,30.51,NNW,333,0.0,0.0,83,0.00,,,0.00,0,WeatherCatV1.23B16,2013-12-08 07:16:00,
2013-12-08 02:21:00,10.3,5.9,30.51,NNW,345,0.0,0.0,82,0.00,,,0.00,0,WeatherCatV1.23B16,2013-12-08 07:21:00,
2013-12-08 02:26:00,9.8,5.4,30.51,WNW,300,0.0,1.0,82,0.00,,,0.00,0,WeatherCatV1.23B16,2013-12-08 07:26:00,
2013-12-08 02:31:00,9.4,5.0,30.51,NNW,335,1.0,1.0,82,0.00,,,0.00,0,WeatherCatV1.23B16,2013-12-08 07:31:00,
2013-12-08 02:36:00,9.2,5.1,30.51,NNW,341,0.0,1.0,83,0.00,,,0.00,0,WeatherCatV1.23B16,2013-12-08 07:36:00,
2013-12-08 02:41:00,9.2,5.4,30.51,NNE,33,0.0,0.0,84,0.00,,,0.00,0,WeatherCatV1.23B16,2013-12-08 07:41:00,
2013-12-08 02:46:00,9.3,5.7,30.51,North,355,0.0,0.0,85,0.00,,,0.00,0,WeatherCatV1.23B16,2013-12-08 07:46:00,
2013-12-08 02:51:00,9.5,6.2,30.51,North,351,0.0,1.0,86,0.00,,,0.00,0,WeatherCatV1.23B16,2013-12-08 07:51:00,
2013-12-08 02:56:00,9.5,6.2,30.51,WNW,294,0.0,0.0,86,0.00,,,0.00,0,WeatherCatV1.23B16,2013-12-08 07:56:00,
2013-12-08 03:01:00,9.2,5.6,30.51,WNW,294,0.0,0.0,85,0.00,,,0.00,0,WeatherCatV1.23B16,2013-12-08 08:01:00,
2013-12-08 03:06:00,8.9,5.3,30.51,WNW,303,0.0,0.0,85,0.00,,,0.00,0,WeatherCatV1.23B16,2013-12-08 08:06:00,
2013-12-08 03:11:00,8.2,4.1,30.51,NW,308,0.0,0.0,83,0.00,,,0.00,0,WeatherCatV1.23B16,2013-12-08 08:11:00,
2013-12-08 03:16:00,7.8,3.5,30.51,West,263,0.0,0.0,82,0.00,,,0.00,0,WeatherCatV1.23B16,2013-12-08 08:16:00,
2013-12-08 03:21:00,7.5,3.4,30.52,WNW,302,0.0,0.0,83,0.00,,,0.00,0,WeatherCatV1.23B16,2013-12-08 08:21:00,
2013-12-08 03:26:00,7.3,3.2,30.51,NNE,32,0.0,2.0,83,0.00,,,0.00,0,WeatherCatV1.23B16,2013-12-08 08:26:00,
2013-12-08 03:31:00,7.1,2.8,30.51,NNE,32,0.0,0.0,82,0.00,,,0.00,0,WeatherCatV1.23B16,2013-12-08 08:31:00,
2013-12-08 03:36:00,6.9,2.6,30.50,NNE,31,0.0,0.0,82,0.00,,,0.00,0,WeatherCatV1.23B16,2013-12-08 08:36:00,
2013-12-08 03:41:00,6.9,2.8,30.50,NNW,340,1.0,1.0,83,0.00,,,0.00,0,WeatherCatV1.23B16,2013-12-08 08:41:00,
2013-12-08 03:46:00,6.9,3.1,30.50,NNW,345,0.0,2.0,84,0.00,,,0.00,0,WeatherCatV1.23B16,2013-12-08 08:46:00,
2013-12-08 03:51:00,6.9,3.1,30.51,North,355,0.0,1.0,84,0.00,,,0.00,0,WeatherCatV1.23B16,2013-12-08 08:51:00,
2013-12-08 03:56:00,6.9,3.1,30.50,North,0,0.0,0.0,84,0.00,,,0.00,0,WeatherCatV1.23B16,2013-12-08 08:56:00,
2013-12-08 04:01:00,6.9,3.1,30.51,North,5,0.0,0.0,84,0.00,,,0.00,0,WeatherCatV1.23B16,2013-12-08 09:01:00,
2013-12-08 04:06:00,6.9,3.1,30.50,North,5,0.0,0.0,84,0.00,,,0.00,0,WeatherCatV1.23B16,2013-12-08 09:06:00,
2013-12-08 04:11:00,6.9,3.4,30.50,North,0,0.0,1.0,85,0.00,,,0.00,0,WeatherCatV1.23B16,2013-12-08 09:11:00,
2013-12-08 04:16:00,7.0,3.5,30.50,North,350,0.0,0.0,85,0.00,,,0.00,0,WeatherCatV1.23B16,2013-12-08 09:16:00,
2013-12-08 04:21:00,7.1,3.6,30.51,North,350,0.0,0.0,85,0.00,,,0.00,0,WeatherCatV1.23B16,2013-12-08 09:21:00,
2013-12-08 04:26:00,7.3,4.0,30.51,North,350,0.0,0.0,86,0.00,,,0.00,0,WeatherCatV1.23B16,2013-12-08 09:26:00,
2013-12-08 04:31:00,7.4,4.1,30.51,North,350,0.0,0.0,86,0.00,,,0.00,0,WeatherCatV1.23B16,2013-12-08 09:31:00,
2013-12-08 04:36:00,7.3,3.8,30.51,NNW,346,0.0,0.0,85,0.00,,,0.00,0,WeatherCatV1.23B16,2013-12-08 09:36:00,
2013-12-08 04:41:00,7.2,3.7,30.51,NNW,346,0.0,0.0,85,0.00,,,0.00,0,WeatherCatV1.23B16,2013-12-08 09:41:00,
2013-12-08 04:46:00,7.1,3.6,30.51,North,0,0.0,2.0,85,0.00,,,0.00,0,WeatherCatV1.23B16,2013-12-08 09:46:00,
2013-12-08 04:51:00,7.0,3.5,30.51,North,0,0.0,0.0,85,0.00,,,0.00,0,WeatherCatV1.23B16,2013-12-08 09:51:00,
2013-12-08 04:56:00,6.9,3.4,30.50,NNE,22,0.0,1.0,85,0.00,,,0.00,0,WeatherCatV1.23B16,2013-12-08 09:56:00,
2013-12-08 05:01:00,7.0,3.5,30.50,North,0,0.0,2.0,85,0.00,,,0.00,0,WeatherCatV1.23B16,2013-12-08 10:01:00,
2013-12-08 05:06:00,7.0,3.5,30.51,NNW,348,0.0,1.0,85,0.00,,,0.00,0,WeatherCatV1.23B16,2013-12-08 10:06:00,
2013-12-08 05:11:00,7.2,3.9,30.51,North,0,0.0,0.0,86,0.00,,,0.00,0,WeatherCatV1.23B16,2013-12-08 10:11:00,
2013-12-08 05:16:00,7.3,4.3,30.51,NNW,341,0.0,1.0,87,0.00,,,0.00,0,WeatherCatV1.23B16,2013-12-08 10:16:00,
2013-12-08 05:21:00,7.3,4.3,30.51,NNW,342,0.0,0.0,87,0.00,,,0.00,0,WeatherCatV1.23B16,2013-12-08 10:21:00,
2013-12-08 05:26:00,7.2,4.2,30.52,NNE,13,0.0,2.0,87,0.00,,,0.00,0,WeatherCatV1.23B16,2013-12-08 10:26:00,
2013-12-08 05:38:00,6.7,3.4,30.52,North,355,0.0,0.0,86,0.00,,,0.00,0,WeatherCatV1.23B16,2013-12-08 10:38:00,
2013-12-08 05:43:00,6.7,3.4,30.52,WNW,290,0.0,1.0,86,0.00,,,0.00,0,WeatherCatV1.23B16,2013-12-08 10:43:00,
2013-12-08 05:48:00,6.7,3.7,30.52,WNW,290,0.0,0.0,87,0.00,,,0.00,0,WeatherCatV1.23B16,2013-12-08 10:48:00,
2013-12-08 05:53:00,6.6,3.3,30.52,NNW,348,0.0,1.0,86,0.00,,,0.00,0,WeatherCatV1.23B16,2013-12-08 10:53:00,
2013-12-08 05:58:00,6.6,3.3,30.52,North,349,0.0,0.0,86,0.00,,,0.00,0,WeatherCatV1.23B16,2013-12-08 10:58:00,
2013-12-08 06:03:00,6.7,3.7,30.52,NNW,338,0.0,1.0,87,0.00,,,0.00,0,WeatherCatV1.23B16,2013-12-08 11:03:00,
2013-12-08 06:08:00,6.7,3.7,30.52,NNE,20,0.0,0.0,87,0.00,,,0.00,0,WeatherCatV1.23B16,2013-12-08 11:08:00,
2013-12-08 06:13:00,6.7,3.7,30.52,North,5,0.0,0.0,87,0.00,,,0.00,0,WeatherCatV1.23B16,2013-12-08 11:13:00,
2013-12-08 06:18:00,6.4,3.1,30.52,North,5,0.0,0.0,86,0.00,,,0.00,0,WeatherCatV1.23B16,2013-12-08 11:18:00,
2013-12-08 06:23:00,6.4,3.1,30.52,North,5,0.0,0.0,86,0.00,,,0.00,0,WeatherCatV1.23B16,2013-12-08 11:23:00,
2013-12-08 06:28:00,6.5,3.5,30.53,NNE,26,0.0,0.0,87,0.00,,,0.00,0,WeatherCatV1.23B16,2013-12-08 11:28:00,
2013-12-08 06:33:00,6.5,3.5,30.53,NNW,329,0.0,1.0,87,0.00,,,0.00,0,WeatherCatV1.23B16,2013-12-08 11:33:00,
2013-12-08 06:38:00,6.5,3.5,30.53,NNW,329,0.0,0.0,87,0.00,,,0.00,0,WeatherCatV1.23B16,2013-12-08 11:38:00,
2013-12-08 06:43:00,6.5,3.5,30.53,NNW,342,0.0,0.0,87,0.00,,,0.00,0,WeatherCatV1.23B16,2013-12-08 11:43:00,
2013-12-08 06:48:00,6.4,3.4,30.53,WSW,251,0.0,0.0,87,0.00,,,0.00,0,WeatherCatV1.23B16,2013-12-08 11:48:00,
2013-12-08 06:53:00,6.4,3.4,30.54,NNW,345,0.0,1.0,87,0.00,,,0.00,0,WeatherCatV1.23B16,2013-12-08 11:53:00,
2013-12-08 06:58:00,6.5,3.5,30.54,NNW,345,0.0,0.0,87,0.00,,,0.00,0,WeatherCatV1.23B16,2013-12-08 11:58:00,
2013-12-08 07:03:00,6.5,3.5,30.54,NE,40,0.0,0.0,87,0.00,,,0.00,0,WeatherCatV1.23B16,2013-12-08 12:03:00,
2013-12-08 07:08:00,6.7,3.7,30.54,NE,40,0.0,0.0,87,0.00,,,0.00,0,WeatherCatV1.23B16,2013-12-08 12:08:00,
2013-12-08 07:13:00,6.8,4.0,30.54,NE,40,0.0,2.0,88,0.00,,,0.00,0,WeatherCatV1.23B16,2013-12-08 12:13:00,
2013-12-08 07:18:00,6.9,4.1,30.54,North,5,0.0,0.0,88,0.00,,,0.00,0,WeatherCatV1.23B16,2013-12-08 12:18:00,
2013-12-08 07:26:00,7.0,4.2,30.55,NW,323,0.0,1.0,88,0.00,,,0.00,0,WeatherCatV1.23B16,2013-12-08 12:26:00,
2013-12-08 07:31:00,7.1,4.3,30.55,SW,219,0.0,0.0,88,0.00,,,0.00,0,WeatherCatV1.23B16,2013-12-08 12:31:00,
2013-12-08 07:36:00,7.3,4.5,30.54,NW,324,0.0,0.0,88,0.00,,,0.00,0,WeatherCatV1.23B16,2013-12-08 12:36:00,
2013-12-08 07:41:00,7.6,5.1,30.54,NW,324,0.0,0.0,89,0.00,,,0.00,0,WeatherCatV1.23B16,2013-12-08 12:41:00,
2013-12-08 07:46:00,7.6,5.1,30.54,NW,324,0.0,0.0,89,0.00,,,0.00,0,WeatherCatV1.23B16,2013-12-08 12:46:00,
2013-12-08 07:51:00,7.6,5.1,30.54,NW,324,0.0,1.0,89,0.00,,,0.00,0,WeatherCatV1.23B16,2013-12-08 12:51:00,
2013-12-08 07:56:00,7.6,5.1,30.53,NNE,20,0.0,0.0,89,0.00,,,0.00,0,WeatherCatV1.23B16,2013-12-08 12:56:00,
2013-12-08 08:01:00,7.6,5.1,30.53,WNW,298,0.0,0.0,89,0.00,,,0.00,0,WeatherCatV1.23B16,2013-12-08 13:01:00,
2013-12-08 08:06:00,7.6,5.1,30.53,WNW,299,0.0,0.0,89,0.00,,,0.00,0,WeatherCatV1.23B16,2013-12-08 13:06:00,
2013-12-08 08:11:00,7.7,5.2,30.54,WNW,303,0.0,2.0,89,0.00,,,0.00,5,WeatherCatV1.23B16,2013-12-08 13:11:00,
2013-12-08 08:17:00,7.7,4.9,30.53,NNW,333,0.0,0.0,88,0.00,,,0.00,7,WeatherCatV1.23B16,2013-12-08 13:17:00,
2013-12-08 08:22:00,7.7,5.2,30.53,North,351,0.0,0.0,89,0.00,,,0.00,7,WeatherCatV1.23B16,2013-12-08 13:22:00,
2013-12-08 08:27:00,7.7,4.9,30.53,North,350,0.0,0.0,88,0.00,,,0.00,9,WeatherCatV1.23B16,2013-12-08 13:27:00,
2013-12-08 08:32:00,7.7,4.9,30.53,NW,306,1.0,1.0,88,0.00,,,0.00,11,WeatherCatV1.23B16,2013-12-08 13:32:00,
2013-12-08 08:37:00,7.8,5.0,30.53,NNW,339,1.0,1.0,88,0.00,,,0.00,16,WeatherCatV1.23B16,2013-12-08 13:37:00,
2013-12-08 08:42:00,7.9,5.1,30.53,NW,315,0.0,0.0,88,0.00,,,0.00,19,WeatherCatV1.23B16,2013-12-08 13:42:00,
2013-12-08 08:47:00,8.0,5.2,30.53,NNE,19,0.0,0.0,88,0.00,,,0.00,28,WeatherCatV1.23B16,2013-12-08 13:47:00,
2013-12-08 08:52:00,8.0,5.2,30.53,NNW,331,0.0,0.0,88,0.00,,,0.00,26,WeatherCatV1.23B16,2013-12-08 13:52:00,
2013-12-08 08:57:00,8.1,5.3,30.53,NNW,331,0.0,0.0,88,0.00,,,0.00,26,WeatherCatV1.23B16,2013-12-08 13:57:00,
2013-12-08 09:02:00,8.3,5.7,30.53,NNW,346,0.0,0.0,89,0.00,,,0.00,25,WeatherCatV1.23B16,2013-12-08 14:02:00,
2013-12-08 09:07:00,8.4,5.6,30.53,NNW,346,0.0,0.0,88,0.00,,,0.00,28,WeatherCatV1.23B16,2013-12-08 14:07:00,
2013-12-08 09:12:00,8.5,5.7,30.53,NNW,346,0.0,1.0,88,0.00,,,0.00,33,WeatherCatV1.23B16,2013-12-08 14:12:00,
2013-12-08 09:17:00,8.5,5.7,30.53,NNW,346,0.0,0.0,88,0.00,,,0.00,37,WeatherCatV1.23B16,2013-12-08 14:17:00,
2013-12-08 09:22:00,8.5,5.7,30.53,NNW,346,0.0,0.0,88,0.00,,,0.00,35,WeatherCatV1.23B16,2013-12-08 14:22:00,
2013-12-08 09:27:00,8.6,5.8,30.53,North,355,0.0,0.0,88,0.00,,,0.00,35,WeatherCatV1.23B16,2013-12-08 14:27:00,
2013-12-08 09:32:00,8.7,5.9,30.53,North,355,0.0,0.0,88,0.00,,,0.00,42,WeatherCatV1.23B16,2013-12-08 14:32:00,
2013-12-08 09:37:00,8.9,6.1,30.53,NNE,29,0.0,1.0,88,0.00,,,0.00,49,WeatherCatV1.23B16,2013-12-08 14:37:00,
2013-12-08 09:42:00,9.0,6.2,30.53,NNE,29,0.0,0.0,88,0.00,,,0.00,53,WeatherCatV1.23B16,2013-12-08 14:42:00,
2013-12-08 09:47:00,9.2,6.1,30.53,NNE,29,0.0,0.0,87,0.00,,,0.00,44,WeatherCatV1.23B16,2013-12-08 14:47:00,
2013-12-08 09:52:00,9.3,6.2,30.53,NNE,28,0.0,0.0,87,0.00,,,0.00,40,WeatherCatV1.23B16,2013-12-08 14:52:00,
2013-12-08 09:57:00,9.4,6.3,30.52,NNE,30,0.0,0.0,87,0.00,,,0.00,47,WeatherCatV1.23B16,2013-12-08 14:57:00,
2013-12-08 10:02:00,9.4,6.3,30.52,NE,49,0.0,0.0,87,0.00,,,0.00,51,WeatherCatV1.23B16,2013-12-08 15:02:00,
2013-12-08 10:07:00,9.5,6.4,30.52,NE,49,0.0,0.0,87,0.00,,,0.00,56,WeatherCatV1.23B16,2013-12-08 15:07:00,
2013-12-08 10:12:00,9.6,6.5,30.52,NE,49,0.0,0.0,87,0.00,,,0.00,58,WeatherCatV1.23B16,2013-12-08 15:12:00,
2013-12-08 10:17:00,9.8,6.5,30.52,NE,49,0.0,0.0,86,0.00,,,0.00,62,WeatherCatV1.23B16,2013-12-08 15:17:00,
2013-12-08 10:22:00,9.8,6.5,30.52,NE,49,0.0,0.0,86,0.00,,,0.00,69,WeatherCatV1.23B16,2013-12-08 15:22:00,
2013-12-08 10:27:00,9.9,6.6,30.52,NE,49,0.0,0.0,86,0.00,,,0.00,65,WeatherCatV1.23B16,2013-12-08 15:27:00,
2013-12-08 10:32:00,10.0,6.7,30.52,NNE,24,1.0,1.0,86,0.00,,,0.00,65,WeatherCatV1.23B16,2013-12-08 15:32:00,
2013-12-08 10:37:00,10.3,7.0,30.52,NNE,24,0.0,0.0,86,0.00,,,0.00,76,WeatherCatV1.23B16,2013-12-08 15:37:00,
2013-12-08 10:42:00,10.4,7.1,30.52,NNE,24,0.0,0.0,86,0.00,,,0.00,86,WeatherCatV1.23B16,2013-12-08 15:42:00,
2013-12-08 10:47:00,10.6,7.3,30.53,NNE,24,0.0,0.0,86,0.00,,,0.00,86,WeatherCatV1.23B16,2013-12-08 15:47:00,
2013-12-08 10:52:00,10.8,7.2,30.53,NNE,24,0.0,0.0,85,0.00,,,0.00,95,WeatherCatV1.23B16,2013-12-08 15:52:00,
2013-12-08 10:57:00,11.0,7.4,30.52,NNE,24,0.0,1.0,85,0.00,,,0.00,100,WeatherCatV1.23B16,2013-12-08 15:57:00,
2013-12-08 11:02:00,11.2,7.6,30.52,NNE,24,0.0,0.0,85,0.00,,,0.00,107,WeatherCatV1.23B16,2013-12-08 16:02:00,
2013-12-08 11:07:00,11.5,7.9,30.53,NNE,24,0.0,0.0,85,0.00,,,0.00,111,WeatherCatV1.23B16,2013-12-08 16:07:00,
2013-12-08 11:12:00,11.8,8.2,30.52,NNE,24,0.0,0.0,85,0.00,,,0.00,105,WeatherCatV1.23B16,2013-12-08 16:12:00,
2013-12-08 11:17:00,12.2,8.6,30.53,NNE,24,0.0,0.0,85,0.00,,,0.00,111,WeatherCatV1.23B16,2013-12-08 16:17:00,
2013-12-08 11:22:00,12.5,8.6,30.53,NNW,327,0.0,0.0,84,0.00,,,0.00,107,WeatherCatV1.23B16,2013-12-08 16:22:00,
2013-12-08 11:27:00,12.8,8.6,30.53,NNW,327,0.0,0.0,83,0.00,,,0.00,104,WeatherCatV1.23B16,2013-12-08 16:27:00,
2013-12-08 11:32:00,13.1,8.9,30.53,NNW,327,0.0,0.0,83,0.00,,,0.00,105,WeatherCatV1.23B16,2013-12-08 16:32:00,
2013-12-08 11:37:00,13.4,8.9,30.52,NNW,327,0.0,0.0,82,0.00,,,0.00,109,WeatherCatV1.23B16,2013-12-08 16:37:00,
2013-12-08 11:42:00,13.6,9.1,30.52,North,351,0.0,0.0,82,0.00,,,0.00,105,WeatherCatV1.23B16,2013-12-08 16:42:00,
2013-12-08 11:47:00,13.9,9.2,30.53,North,351,0.0,0.0,81,0.00,,,0.00,109,WeatherCatV1.23B16,2013-12-08 16:47:00,
2013-12-08 11:52:00,14.1,9.4,30.52,North,355,0.0,1.0,81,0.00,,,0.00,116,WeatherCatV1.23B16,2013-12-08 16:52:00,
2013-12-08 11:57:00,14.2,9.2,30.51,North,355,0.0,0.0,80,0.00,,,0.00,118,WeatherCatV1.23B16,2013-12-08 16:57:00,
2013-12-08 12:02:00,14.3,9.0,30.51,North,355,0.0,0.0,79,0.00,,,0.00,128,WeatherCatV1.23B16,2013-12-08 17:02:00,
2013-12-08 12:07:00,14.5,9.2,30.51,North,355,0.0,0.0,79,0.00,,,0.00,128,WeatherCatV1.23B16,2013-12-08 17:07:00,
2013-12-08 12:12:00,14.6,9.0,30.50,North,355,0.0,0.0,78,0.00,,,0.00,128,WeatherCatV1.23B16,2013-12-08 17:12:00,
2013-12-08 12:15:00,13.6,9.1,30.52,NNW,336,0.0,0.0,82,0.00,,,0.00,84,WeatherCatV1.23B16,2013-12-08 17:15:00,
2013-12-08 12:20:00,13.9,9.2,30.53,NNW,346,0.0,0.0,81,0.00,,,0.00,84,WeatherCatV1.23B16,2013-12-08 17:20:00,
2013-12-08 12:25:00,14.1,9.4,30.52,North,350,0.0,0.0,81,0.00,,,0.00,84,WeatherCatV1.23B16,2013-12-08 17:25:00,
2013-12-08 12:30:00,14.2,9.2,30.51,North,353,0.0,0.0,80,0.00,,,0.00,84,WeatherCatV1.23B16,2013-12-08 17:30:00,
2013-12-08 12:35:00,14.3,9.0,30.51,North,354,0.0,0.0,79,0.00,,,0.00,84,WeatherCatV1.23B16,2013-12-08 17:35:00,
2013-12-08 12:49:00,14.4,9.1,30.51,North,354,0.0,0.0,79,0.00,,,0.00,84,WeatherCatV1.23B16,2013-12-08 17:49:00,
2013-12-08 12:54:00,15.5,9.3,30.49,NNE,24,0.0,0.0,76,0.00,,,0.00,151,WeatherCatV1.23B16,2013-12-08 17:54:00,
2013-12-08 12:59:00,15.8,9.9,30.49,NNE,24,0.0,0.0,77,0.00,,,0.00,134,WeatherCatV1.23B16,2013-12-08 17:59:00,
2013-12-08 13:05:00,16.0,9.8,30.48,NNE,22,0.0,0.0,76,0.00,,,0.00,134,WeatherCatV1.23B16,2013-12-08 18:05:00,
2013-12-08 13:10:00,16.2,9.7,30.48,NNE,19,0.0,2.0,75,0.00,,,0.00,132,WeatherCatV1.23B16,2013-12-08 18:10:00,
2013-12-08 13:15:00,16.3,9.5,30.47,NNE,19,0.0,0.0,74,0.00,,,0.00,121,WeatherCatV1.23B16,2013-12-08 18:15:00,
2013-12-08 13:20:00,16.3,9.5,30.47,NNE,19,0.0,1.0,74,0.00,,,0.00,127,WeatherCatV1.23B16,2013-12-08 18:20:00,
2013-12-08 13:25:00,16.3,9.5,30.47,NNE,19,0.0,0.0,74,0.00,,,0.00,107,WeatherCatV1.23B16,2013-12-08 18:25:00,
2013-12-08 13:30:00,16.4,9.6,30.47,NNE,22,0.0,0.0,74,0.00,,,0.00,123,WeatherCatV1.23B16,2013-12-08 18:30:00,
2013-12-08 13:35:00,16.5,9.7,30.46,NNE,17,0.0,1.0,74,0.00,,,0.00,100,WeatherCatV1.23B16,2013-12-08 18:35:00,
2013-12-08 13:40:00,16.5,9.4,30.47,NNE,23,2.0,3.0,73,0.00,,,0.00,95,WeatherCatV1.23B16,2013-12-08 18:40:00,
2013-12-08 13:45:00,16.6,9.5,30.46,NE,41,0.0,1.0,73,0.00,,,0.00,98,WeatherCatV1.23B16,2013-12-08 18:45:00,
2013-12-08 13:50:00,16.6,9.8,30.46,NE,38,0.0,2.0,74,0.00,,,0.00,98,WeatherCatV1.23B16,2013-12-08 18:50:00,
2013-12-08 13:55:00,16.8,9.7,30.46,NE,38,0.0,0.0,73,0.00,,,0.00,104,WeatherCatV1.23B16,2013-12-08 18:55:00,
2013-12-08 14:00:00,16.8,9.7,30.46,NNE,24,1.0,2.0,73,0.00,,,0.00,100,WeatherCatV1.23B16,2013-12-08 19:00:00,
2013-12-08 14:05:00,16.8,9.7,30.46,NNE,22,2.0,2.0,73,0.00,,,0.00,104,WeatherCatV1.23B16,2013-12-08 19:05:00,
2013-12-08 14:11:00,16.8,9.7,30.45,NNE,22,1.0,1.0,73,0.00,,,0.00,111,WeatherCatV1.23B16,2013-12-08 19:11:00,
2013-12-08 14:16:00,16.9,9.8,30.45,NNE,22,0.0,2.0,73,0.00,,,0.00,114,WeatherCatV1.23B16,2013-12-08 19:16:00,
2013-12-08 14:21:00,17.0,9.9,30.45,NE,34,0.0,0.0,73,0.00,,,0.00,109,WeatherCatV1.23B16,2013-12-08 19:21:00,
2013-12-08 14:26:00,17.2,10.1,30.44,NNE,26,1.0,3.0,73,0.00,,,0.00,121,WeatherCatV1.23B16,2013-12-08 19:26:00,
2013-12-08 14:31:00,17.3,10.2,30.44,North,355,2.0,5.0,73,0.00,,,0.00,105,WeatherCatV1.23B16,2013-12-08 19:31:00,
2013-12-08 14:36:00,17.3,10.2,30.44,NE,40,2.0,3.0,73,0.00,,,0.00,90,WeatherCatV1.23B16,2013-12-08 19:36:00,
2013-12-08 14:41:00,17.4,10.2,30.43,NNE,28,0.0,1.0,73,0.00,,,0.00,95,WeatherCatV1.23B16,2013-12-08 19:41:00,
2013-12-08 14:46:00,17.5,10.4,30.43,NNE,31,2.0,3.0,73,0.00,,,0.00,88,WeatherCatV1.23B16,2013-12-08 19:46:00,
2013-12-08 14:51:00,17.4,9.9,30.43,NNE,24,0.0,0.0,72,0.00,,,0.00,62,WeatherCatV1.23B16,2013-12-08 19:51:00,
2013-12-08 14:56:00,17.4,10.2,30.43,NE,37,0.0,2.0,73,0.00,,,0.00,53,WeatherCatV1.23B16,2013-12-08 19:56:00,
2013-12-08 15:07:00,17.6,10.8,30.43,NNE,31,0.0,2.0,74,0.00,,,0.00,70,WeatherCatV1.23B16,2013-12-08 20:07:00,
2013-12-08 15:12:00,17.7,10.9,30.43,NNE,25,0.0,3.0,74,0.00,,,0.00,60,WeatherCatV1.23B16,2013-12-08 20:12:00,
2013-12-08 15:17:00,17.9,11.0,30.43,NE,44,0.0,3.0,74,0.00,,,0.00,54,WeatherCatV1.23B16,2013-12-08 20:17:00,
2013-12-08 15:22:00,17.9,10.4,30.43,NE,35,0.0,0.0,72,0.00,,,0.00,51,WeatherCatV1.23B16,2013-12-08 20:22:00,
2013-12-08 15:27:00,18.0,10.5,30.43,NNE,23,0.0,0.0,72,0.00,,,0.00,42,WeatherCatV1.23B16,2013-12-08 20:27:00,
2013-12-08 15:32:00,18.0,10.5,30.43,NE,34,0.0,3.0,72,0.00,,,0.00,42,WeatherCatV1.23B16,2013-12-08 20:32:00,
2013-12-08 15:37:00,18.0,10.5,30.43,NNE,30,0.0,0.0,72,0.00,,,0.00,42,WeatherCatV1.23B16,2013-12-08 20:37:00,
2013-12-08 15:42:00,18.0,10.5,30.42,NNE,31,0.0,0.0,72,0.00,,,0.00,35,WeatherCatV1.23B16,2013-12-08 20:42:00,
2013-12-08 15:47:00,17.9,10.1,30.42,NE,44,0.0,3.0,71,0.00,,,0.00,28,WeatherCatV1.23B16,2013-12-08 20:47:00,
2013-12-08 15:52:00,17.9,10.1,30.42,NE,48,1.0,4.0,71,0.00,,,0.00,35,WeatherCatV1.23B16,2013-12-08 20:52:00,
2013-12-08 15:57:00,17.9,10.1,30.42,NNE,26,0.0,2.0,71,0.00,,,0.00,33,WeatherCatV1.23B16,2013-12-08 20:57:00,
2013-12-08 16:02:00,17.9,10.1,30.42,NE,45,1.0,3.0,71,0.00,,,0.00,30,WeatherCatV1.23B16,2013-12-08 21:02:00,
2013-12-08 16:07:00,17.9,10.1,30.41,NE,40,3.0,4.0,71,0.00,,,0.00,26,WeatherCatV1.23B16,2013-12-08 21:07:00,
2013-12-08 16:12:00,17.9,10.1,30.41,NE,34,2.0,3.0,71,0.00,,,0.00,21,WeatherCatV1.23B16,2013-12-08 21:12:00,
2013-12-08 16:17:00,17.9,10.4,30.41,NE,34,0.0,2.0,72,0.00,,,0.00,18,WeatherCatV1.23B16,2013-12-08 21:17:00,
2013-12-08 16:22:00,17.9,10.1,30.41,NE,34,1.0,3.0,71,0.00,,,0.00,14,WeatherCatV1.23B16,2013-12-08 21:22:00,
2013-12-08 16:27:00,17.9,10.1,30.41,NE,34,0.0,0.0,71,0.00,,,0.00,14,WeatherCatV1.23B16,2013-12-08 21:27:00,
2013-12-08 16:32:00,17.9,10.1,30.40,NNE,15,0.0,4.0,71,0.00,,,0.00,11,WeatherCatV1.23B16,2013-12-08 21:32:00,
2013-12-08 16:37:00,17.8,10.0,30.40,NNE,19,2.0,2.0,71,0.00,,,0.00,7,WeatherCatV1.23B16,2013-12-08 21:37:00,
2013-12-08 16:42:00,17.8,10.0,30.40,NNE,22,1.0,4.0,71,0.00,,,0.00,5,WeatherCatV1.23B16,2013-12-08 21:42:00,
2013-12-08 16:47:00,17.8,10.0,30.39,NNE,32,2.0,3.0,71,0.00,,,0.00,0,WeatherCatV1.23B16,2013-12-08 21:47:00,
2013-12-08 16:52:00,17.8,10.0,30.40,NE,40,4.0,5.0,71,0.00,,,0.00,0,WeatherCatV1.23B16,2013-12-08 21:52:00,
2013-12-08 16:57:00,17.8,10.0,30.39,NE,37,0.0,0.0,71,0.00,,,0.00,0,WeatherCatV1.23B16,2013-12-08 21:57:00,
2013-12-08 17:02:00,17.7,9.9,30.39,NE,37,0.0,3.0,71,0.00,,,0.00,0,WeatherCatV1.23B16,2013-12-08 22:02:00,
2013-12-08 17:07:00,17.7,9.9,30.39,NE,46,0.0,0.0,71,0.00,,,0.00,0,WeatherCatV1.23B16,2013-12-08 22:07:00,
2013-12-08 17:12:00,17.6,10.1,30.38,NE,46,0.0,0.0,72,0.00,,,0.00,0,WeatherCatV1.23B16,2013-12-08 22:12:00,
2013-12-08 17:17:00,17.5,10.0,30.38,NE,45,2.0,3.0,72,0.00,,,0.00,0,WeatherCatV1.23B16,2013-12-08 22:17:00,
2013-12-08 17:22:00,17.5,10.0,30.38,NE,36,2.0,7.0,72,0.00,,,0.00,0,WeatherCatV1.23B16,2013-12-08 22:22:00,
2013-12-08 17:27:00,17.4,9.9,30.37,NNE,23,0.0,1.0,72,0.00,,,0.00,0,WeatherCatV1.23B16,2013-12-08 22:27:00,
2013-12-08 17:32:00,17.4,10.2,30.37,NNE,28,1.0,5.0,73,0.00,,,0.00,0,WeatherCatV1.23B16,2013-12-08 22:32:00,
2013-12-08 17:37:00,17.5,10.4,30.37,NNE,20,3.0,4.0,73,0.00,,,0.00,0,WeatherCatV1.23B16,2013-12-08 22:37:00,
2013-12-08 17:42:00,17.5,10.4,30.37,NNE,30,0.0,1.0,73,0.00,,,0.00,0,WeatherCatV1.23B16,2013-12-08 22:42:00,
2013-12-08 17:47:00,17.5,10.4,30.36,NE,37,0.0,3.0,73,0.00,,,0.00,0,WeatherCatV1.23B16,2013-12-08 22:47:00,
2013-12-08 17:52:00,17.5,10.6,30.36,NNE,30,1.0,4.0,74,0.00,,,0.00,0,WeatherCatV1.23B16,2013-12-08 22:52:00,
2013-12-08 17:57:00,17.6,11.1,30.36,NNE,18,0.0,4.0,75,0.00,,,0.00,0,WeatherCatV1.23B16,2013-12-08 22:57:00,
2013-12-08 18:02:00,17.6,11.1,30.36,NNE,18,0.0,1.0,75,0.00,,,0.00,0,WeatherCatV1.23B16,2013-12-08 23:02:00,
2013-12-08 18:07:00,17.7,11.4,30.36,NE,35,1.0,3.0,76,0.00,,,0.00,0,WeatherCatV1.23B16,2013-12-08 23:07:00,
2013-12-08 18:12:00,17.7,11.7,30.36,NNE,28,2.0,5.0,77,0.00,,,0.00,0,WeatherCatV1.23B16,2013-12-08 23:12:00,
2013-12-08 18:17:00,17.7,12.0,30.35,NNE,28,0.0,4.0,78,0.00,,,0.00,0,WeatherCatV1.23B16,2013-12-08 23:17:00,
2013-12-08 18:22:00,17.6,12.2,30.35,NNE,33,0.0,1.0,79,0.00,,,0.00,0,WeatherCatV1.23B16,2013-12-08 23:22:00,
2013-12-08 18:27:00,17.6,12.8,30.35,NNE,27,0.0,3.0,81,0.00,,,0.00,0,WeatherCatV1.23B16,2013-12-08 23:27:00,
2013-12-08 18:32:00,17.5,13.0,30.35,NE,36,0.0,4.0,82,0.00,,,0.00,0,WeatherCatV1.23B16,2013-12-08 23:32:00,
2013-12-08 18:37:00,17.5,13.2,30.34,NE,36,0.0,0.0,83,0.00,,,0.00,0,WeatherCatV1.23B16,2013-12-08 23:37:00,
2013-12-08 18:42:00,17.5,13.2,30.34,NNE,30,0.0,0.0,83,0.00,,,0.00,0,WeatherCatV1.23B16,2013-12-08 23:42:00,
2013-12-08 18:47:00,17.5,13.5,30.34,NNE,23,0.0,1.0,84,0.00,,,0.00,0,WeatherCatV1.23B16,2013-12-08 23:47:00,
2013-12-08 18:52:00,17.5,13.5,30.34,NNE,23,0.0,0.0,84,0.00,,,0.00,0,WeatherCatV1.23B16,2013-12-08 23:52:00,
2013-12-08 18:57:00,17.5,13.8,30.33,NNE,31,0.0,2.0,85,0.00,,,0.00,0,WeatherCatV1.23B16,2013-12-08 23:57:00,
2013-12-08 19:02:00,17.6,13.9,30.34,NNE,31,0.0,0.0,85,0.00,,,0.00,0,WeatherCatV1.23B16,2013-12-09 00:02:00,
2013-12-08 19:07:00,17.6,14.1,30.33,NNE,24,2.0,3.0,86,0.00,,,0.00,0,WeatherCatV1.23B16,2013-12-09 00:07:00,
2013-12-08 19:12:00,17.6,14.1,30.33,NNE,29,0.0,2.0,86,0.00,,,0.00,0,WeatherCatV1.23B16,2013-12-09 00:12:00,
2013-12-08 19:17:00,17.6,14.4,30.32,NE,39,0.0,3.0,87,0.00,,,0.00,0,WeatherCatV1.23B16,2013-12-09 00:17:00,
2013-12-08 19:22:00,17.6,14.4,30.32,NE,36,0.0,2.0,87,0.00,,,0.00,0,WeatherCatV1.23B16,2013-12-09 00:22:00,
2013-12-08 19:27:00,17.5,14.3,30.32,NE,36,0.0,0.0,87,0.00,,,0.00,0,WeatherCatV1.23B16,2013-12-09 00:27:00,
2013-12-08 19:32:00,17.5,14.3,30.32,NE,42,0.0,1.0,87,0.00,,,0.00,0,WeatherCatV1.23B16,2013-12-09 00:32:00,
2013-12-08 19:37:00,17.5,14.6,30.32,NE,34,0.0,0.0,88,0.00,,,0.00,0,WeatherCatV1.23B16,2013-12-09 00:37:00,
2013-12-08 19:42:00,17.4,14.5,30.31,NNE,17,0.0,0.0,88,0.00,,,0.00,0,WeatherCatV1.23B16,2013-12-09 00:42:00,
2013-12-08 19:47:00,17.3,14.4,30.31,North,11,2.0,3.0,88,0.00,,,0.00,0,WeatherCatV1.23B16,2013-12-09 00:47:00,
2013-12-08 19:52:00,17.3,14.4,30.31,NE,52,1.0,3.0,88,0.00,,,0.00,0,WeatherCatV1.23B16,2013-12-09 00:52:00,
2013-12-08 19:57:00,17.2,14.3,30.31,NE,37,1.0,3.0,88,0.00,,,0.00,0,WeatherCatV1.23B16,2013-12-09 00:57:00,
2013-12-08 20:02:00,17.1,14.2,30.30,NNE,22,0.0,4.0,88,0.00,,,0.00,0,WeatherCatV1.23B16,2013-12-09 01:02:00,
2013-12-08 20:07:00,17.1,14.2,30.30,NNE,32,2.0,4.0,88,0.00,,,0.00,0,WeatherCatV1.23B16,2013-12-09 01:07:00,
2013-12-08 20:12:00,17.1,14.4,30.30,NNW,344,0.0,3.0,89,0.00,,,0.00,0,WeatherCatV1.23B16,2013-12-09 01:12:00,
2013-12-08 20:17:00,17.0,14.3,30.30,North,355,0.0,2.0,89,0.00,,,0.00,0,WeatherCatV1.23B16,2013-12-09 01:17:00,
2013-12-08 20:22:00,16.9,14.2,30.30,North,0,3.0,3.0,89,0.00,,,0.00,0,WeatherCatV1.23B16,2013-12-09 01:22:00,
2013-12-08 20:27:00,16.8,14.1,30.29,North,355,0.0,2.0,89,0.00,,,0.00,0,WeatherCatV1.23B16,2013-12-09 01:27:00,
2013-12-08 20:32:00,16.7,14.0,30.29,North,355,0.0,0.0,89,0.00,,,0.00,0,WeatherCatV1.23B16,2013-12-09 01:32:00,
2013-12-08 20:37:00,16.7,14.0,30.29,NNE,29,0.0,0.0,89,0.00,,,0.00,0,WeatherCatV1.23B16,2013-12-09 01:37:00,
2013-12-08 20:42:00,16.7,14.0,30.28,NNE,22,3.0,3.0,89,0.00,,,0.00,0,WeatherCatV1.23B16,2013-12-09 01:42:00,
2013-12-08 20:47:00,16.6,14.2,30.27,NNE,12,0.0,2.0,90,0.00,,,0.00,0,WeatherCatV1.23B16,2013-12-09 01:47:00,
2013-12-08 20:52:00,16.6,14.2,30.27,NNE,20,0.0,3.0,90,0.00,,,0.00,0,WeatherCatV1.23B16,2013-12-09 01:52:00,
2013-12-08 20:57:00,16.7,14.3,30.27,ENE,57,2.0,3.0,90,0.00,,,0.00,0,WeatherCatV1.23B16,2013-12-09 01:57:00,
2013-12-08 21:02:00,16.7,14.3,30.26,NNE,25,0.0,0.0,90,0.00,,,0.00,0,WeatherCatV1.23B16,2013-12-09 02:02:00,
2013-12-08 21:07:00,16.7,14.3,30.26,NNE,26,0.0,0.0,90,0.00,,,0.00,0,WeatherCatV1.23B16,2013-12-09 02:07:00,
2013-12-08 21:12:00,16.8,14.4,30.26,NNE,17,0.0,0.0,90,0.00,,,0.00,0,WeatherCatV1.23B16,2013-12-09 02:12:00,
2013-12-08 21:17:00,16.8,14.6,30.25,NNE,22,2.0,5.0,91,0.00,,,0.00,0,WeatherCatV1.23B16,2013-12-09 02:17:00,
2013-12-08 21:22:00,16.9,14.5,30.25,NNE,21,0.0,3.0,90,0.00,,,0.00,0,WeatherCatV1.23B16,2013-12-09 02:22:00,
2013-12-08 21:27:00,17.0,14.6,30.25,NNE,23,0.0,0.0,90,0.00,,,0.00,0,WeatherCatV1.23B16,2013-12-09 02:27:00,
2013-12-08 21:32:00,17.0,14.8,30.24,NNE,25,0.0,1.0,91,0.00,,,0.00,0,WeatherCatV1.23B16,2013-12-09 02:32:00,
2013-12-08 21:37:00,17.1,14.9,30.24,NNE,17,0.0,3.0,91,0.00,,,0.00,0,WeatherCatV1.23B16,2013-12-09 02:37:00,
2013-12-08 21:42:00,17.2,15.0,30.24,North,11,0.0,0.0,91,0.00,,,0.00,0,WeatherCatV1.23B16,2013-12-09 02:42:00,
2013-12-08 21:47:00,17.2,15.0,30.23,NNE,21,1.0,3.0,91,0.00,,,0.00,0,WeatherCatV1.23B16,2013-12-09 02:47:00,
2013-12-08 21:52:00,17.3,15.1,30.23,North,11,2.0,2.0,91,0.00,,,0.00,0,WeatherCatV1.23B16,2013-12-09 02:52:00,
2013-12-08 21:57:00,17.4,15.2,30.22,NNE,20,0.0,2.0,91,0.00,,,0.00,0,WeatherCatV1.23B16,2013-12-09 02:57:00,
2013-12-08 22:02:00,17.5,15.3,30.22,NNE,26,0.0,2.0,91,0.00,,,0.00,0,WeatherCatV1.23B16,2013-12-09 03:02:00,
2013-12-08 22:07:00,17.6,15.4,30.22,NE,36,2.0,3.0,91,0.00,,,0.00,0,WeatherCatV1.23B16,2013-12-09 03:07:00,
2013-12-08 22:12:00,17.7,15.5,30.22,NNW,344,0.0,0.0,91,0.00,,,0.00,0,WeatherCatV1.23B16,2013-12-09 03:12:00,
2013-12-08 22:17:00,17.7,15.5,30.21,NNE,22,0.0,0.0,91,0.00,,,0.00,0,WeatherCatV1.23B16,2013-12-09 03:17:00,
2013-12-08 22:22:00,17.8,15.6,30.21,North,350,0.0,3.0,91,0.00,,,0.00,0,WeatherCatV1.23B16,2013-12-09 03:22:00,
2013-12-08 22:31:00,17.9,15.7,30.21,North,355,0.0,0.0,91,0.00,,,0.00,0,WeatherCatV1.23B16,2013-12-09 03:31:00,
2013-12-08 22:36:00,18.0,15.8,30.20,North,355,0.0,2.0,91,0.00,,,0.00,0,WeatherCatV1.23B16,2013-12-09 03:36:00,
2013-12-08 22:41:00,18.1,15.9,30.20,NNW,340,0.0,0.0,91,0.00,,,0.00,0,WeatherCatV1.23B16,2013-12-09 03:41:00,
2013-12-08 22:46:00,18.2,16.0,30.20,NNE,13,0.0,1.0,91,0.00,,,0.00,0,WeatherCatV1.23B16,2013-12-09 03:46:00,
2013-12-08 22:52:00,18.3,16.1,30.19,NNE,12,0.0,3.0,91,0.00,,,0.00,0,WeatherCatV1.23B16,2013-12-09 03:52:00,
2013-12-08 22:57:00,18.4,16.2,30.19,NNE,13,0.0,3.0,91,0.00,,,0.00,0,WeatherCatV1.23B16,2013-12-09 03:57:00,
2013-12-08 23:02:00,18.5,16.6,30.19,NNE,13,0.0,0.0,92,0.00,,,0.00,0,WeatherCatV1.23B16,2013-12-09 04:02:00,
2013-12-08 23:07:00,18.5,16.3,30.18,NNE,17,1.0,1.0,91,0.00,,,0.00,0,WeatherCatV1.23B16,2013-12-09 04:07:00,
2013-12-08 23:12:00,18.6,16.4,30.18,NE,38,0.0,0.0,91,0.00,,,0.00,0,WeatherCatV1.23B16,2013-12-09 04:12:00,
2013-12-08 23:17:00,18.7,16.5,30.17,NE,34,0.0,1.0,91,0.00,,,0.00,0,WeatherCatV1.23B16,2013-12-09 04:17:00,
2013-12-08 23:22:00,18.8,16.9,30.17,NE,34,0.0,0.0,92,0.00,,,0.00,0,WeatherCatV1.23B16,2013-12-09 04:22:00,
2013-12-08 23:27:00,18.8,16.9,30.17,NE,34,0.0,0.0,92,0.00,,,0.00,0,WeatherCatV1.23B16,2013-12-09 04:27:00,
2013-12-08 23:32:00,18.9,17.0,30.16,NNE,13,0.0,0.0,92,0.00,,,0.00,0,WeatherCatV1.23B16,2013-12-09 04:32:00,
2013-12-08 23:37:00,18.9,17.0,30.16,NNW,342,1.0,1.0,92,0.00,,,0.00,0,WeatherCatV1.23B16,2013-12-09 04:37:00,
2013-12-08 23:42:00,18.9,17.0,30.15,NNW,342,0.0,2.0,92,0.00,,,0.00,0,WeatherCatV1.23B16,2013-12-09 04:42:00,
2013-12-08 23:47:00,18.9,17.0,30.15,NNW,342,0.0,1.0,92,0.00,,,0.00,0,WeatherCatV1.23B16,2013-12-09 04:47:00,
2013-12-08 23:52:00,18.9,17.0,30.15,NNW,342,0.0,0.0,92,0.00,,,0.00,0,WeatherCatV1.23B16,2013-12-09 04:52:00,
2013-12-08 23:57:00,18.9,17.0,30.14,NNW,342,0.0,0.0,92,0.00,,,0.00,0,WeatherCatV1.23B16,2013-12-09 04:57:00,